MyTimes logo

TIMES

Webb Imagery

16/05/1999
Brighton Bay Victorian Fun Roller Blade Championship
10km Roller Blade

(Click on competitor name to view personalised results)

Name
Race #
Category
Time
(h:mm:ss)
Avg Speed
km/hr
OAll
Place
Cat
Place
GAINSMITH Mark#157Adult Male Blader0:19:09 31.3 11
FINSTER Daniel#152Adult Male Blader0:19:10 31.3 22
SMITH Anthony#138Adult Male Blader0:19:10 31.3 33
NOREG Blader#9004Adult Male Blader0:19:10 31.3 44
DE ANGELIS Damon#555Junior Male Blader0:19:11 31.3 51
BLAKEY S#52Junior Male Blader0:21:48 27.5 62
MC ALISTER Paul#136Adult Male Blader0:21:49 27.5 75
MILLS David#134Adult Male Blader0:22:29 26.7 86
ALLEN Catherine#603Junior Female Blader0:22:30 26.7 91
EMBLETON Sarah#101Junior Female Blader0:22:30 26.7 102
ORAM D#79Adult Male Blader0:22:32 26.6 117
KASO Nathan#135Junior Male Blader0:23:10 25.9 123
RING 9808 4474#103Adult Male Blader0:23:27 25.6 138
BYRNE P#69Adult Male Blader0:23:33 25.5 149
WALKLING L#76Adult Male Blader0:25:08 23.9 1510
WILLIAMS W#80Adult Male Blader0:26:19 22.8 1611
STEWART Ken#104Adult Male Blader0:26:22 22.8 1712
RING 9808 4474#6030Adult Male Blader0:26:24 22.7 1813
HIGGINS Simon#626Adult Male Blader0:27:06 22.1 1914
RANDALL Michael#102Adult Male Blader0:27:13 22 2015
NORTH-COOMBES C#73Adult Male Blader0:27:21 21.9 2116
BEDNORZ M#70Adult Male Blader0:27:33 21.8 2217
SOKIRANSKY E#427Adult Male Blader0:27:46 21.6 2318
BATHOLDI Jurg#592Adult Male Blader0:28:16 21.2 2419
FRASER C#63Adult Female Blader0:28:17 21.2 251
HOWLETT P#55Adult Male Blader0:28:48 20.8 2620
BYRNE T#65Junior Female Blader0:29:02 20.7 273
HUGHES Les#535Junior Male Blader0:29:03 20.7 284
STANNAGE Timothy#143Adult Male Blader0:29:33 20.3 2921
BRENNAN Peter#570Adult Male Blader0:30:10 19.9 3022
TRUMBLE A#78Adult Male Blader0:30:21 19.8 3123
CHEU/NG T#57Adult Female Blader0:30:36 19.6 322
PEDERSEN DAV#72Adult Male Blader0:30:37 19.6 3324
TARRANT B#71Adult Male Blader0:32:55 18.2 3425
RELLICH Michael#137Adult Male Blader0:33:59 17.7 3526
ZAMBELLI R#83Adult Female Blader0:34:30 17.4 363
DOW Nick#158Junior Male Blader0:36:08 16.6 375
SPYKER P#399Adult Male Blader0:36:09 16.6 3827
PETERS S#58Adult Female Blader0:36:31 16.4 394
GRAZIOSI Marlo#109Adult Male Blader0:36:35 16.4 4028
MCARDLE S#67Adult Male Blader0:37:05 16.2 4129
ROUSE Robert#540Adult Male Blader0:37:06 16.2 4230
ELLIS S#64Adult Female Blader0:39:05 15.4 435
WILLIAMS D#77Adult Male Blader0:39:05 15.4 4431
ZAMBELLI I#84Adult Male Blader0:40:06 15 4532
PEACOCK A#60Adult Female Blader0:42:18 14.2 466
SCHILLABEER Fred#105Adult Male Blader0:42:20 14.2 4733
SHEARN Britt#110Adult Female Blader0:42:58 14 487
HUGHES Ian#536Adult Male Blader0:44:48 13.4 4934
MCNAMARA A#53Adult Female Blader0:45:23 13.2 508
ALBERS S#56Adult Female Blader0:45:23 13.2 519
ROBERTS L#449Junior Female Blader0:47:01 12.8 524
ROBERTS M#448Junior Female Blader0:47:02 12.8 535
NANFRA A#68Adult Male Blader0:48:50 12.3 5435
NANFRA T#61Adult Female Blader0:48:54 12.3 5510
PETERSEN Mark#140Adult Male Blader0:50:31 11.9 5636
DAUGHTON Blair#142Junior Male Blader0:51:22 11.7 576
DACY Tory#141Junior Female Blader0:51:25 11.7 586
FRASER Boyd#505Adult Male Blader1:02:43 9.6 5937
MCNAMARA L#66Adult Male Blader1:07:22 8.9 6038
PATULLO Kris#153Adult Female Blader1:11:45 8.4 6111
FISCHER D#50Junior Male Blader1:17:00 7.8 627